<?xml version="1.0" encoding="UTF-8" standalone="no" ?>
<gpx xmlns="http://www.topografix.com/GPX/1/1" xmlns:xsi="http://www.w3.org/2001/XMLSchema-instance" xsi:schemaLocation="http://www.topografix.com/GPX/1/1 http://www.topografix.com/GPX/1/1/gpx.xsd" version="1.1" creator="VisuGPX - https://www.visugpx.com">
  <metadata>
    <name>14761530-Marche Brigueil 2022 13,3 km</name>
  </metadata>
  <trk>
    <name><![CDATA[14761530-Marche Brigueil 2022]]></name>
    <extensions>
      <line xmlns="http://www.topografix.com/GPX/gpx_style/0/2">
        <color>0000FF</color>
        <width>4</width>
      </line>
    </extensions>
    <trkseg>
      <trkpt lat="46.39335" lon="1.08775">
        <ele>150</ele>
        <time>2022-05-17T05:06:44Z</time>
      </trkpt>
      <trkpt lat="46.39394" lon="1.08775">
        <ele>148</ele>
        <time>2022-05-17T05:07:31Z</time>
      </trkpt>
      <trkpt lat="46.39431" lon="1.08781">
        <ele>147</ele>
        <time>2022-05-17T05:08:01Z</time>
      </trkpt>
      <trkpt lat="46.39509" lon="1.08775">
        <ele>145</ele>
        <time>2022-05-17T05:09:04Z</time>
      </trkpt>
      <trkpt lat="46.39632" lon="1.088">
        <ele>145</ele>
        <time>2022-05-17T05:10:43Z</time>
      </trkpt>
      <trkpt lat="46.39654" lon="1.08835">
        <ele>145</ele>
        <time>2022-05-17T05:11:09Z</time>
      </trkpt>
      <trkpt lat="46.39697" lon="1.08888">
        <ele>144</ele>
        <time>2022-05-17T05:11:54Z</time>
      </trkpt>
      <trkpt lat="46.39728" lon="1.08916">
        <ele>145</ele>
        <time>2022-05-17T05:12:24Z</time>
      </trkpt>
      <trkpt lat="46.39792" lon="1.08963">
        <ele>143</ele>
        <time>2022-05-17T05:13:21Z</time>
      </trkpt>
      <trkpt lat="46.39845" lon="1.09019">
        <ele>143</ele>
        <time>2022-05-17T05:14:14Z</time>
      </trkpt>
      <trkpt lat="46.3989" lon="1.09081">
        <ele>145</ele>
        <time>2022-05-17T05:15:03Z</time>
      </trkpt>
      <trkpt lat="46.39946" lon="1.09135">
        <ele>148</ele>
        <time>2022-05-17T05:15:57Z</time>
      </trkpt>
      <trkpt lat="46.40033" lon="1.09197">
        <ele>149</ele>
        <time>2022-05-17T05:17:15Z</time>
      </trkpt>
      <trkpt lat="46.40098" lon="1.09266">
        <ele>156</ele>
        <time>2022-05-17T05:18:19Z</time>
      </trkpt>
      <trkpt lat="46.40128" lon="1.09345">
        <ele>161</ele>
        <time>2022-05-17T05:19:09Z</time>
      </trkpt>
      <trkpt lat="46.40162" lon="1.09433">
        <ele>160</ele>
        <time>2022-05-17T05:20:05Z</time>
      </trkpt>
      <trkpt lat="46.4015" lon="1.09511">
        <ele>162</ele>
        <time>2022-05-17T05:20:49Z</time>
      </trkpt>
      <trkpt lat="46.40132" lon="1.09592">
        <ele>162</ele>
        <time>2022-05-17T05:21:36Z</time>
      </trkpt>
      <trkpt lat="46.40152" lon="1.09671">
        <ele>166</ele>
        <time>2022-05-17T05:22:22Z</time>
      </trkpt>
      <trkpt lat="46.40206" lon="1.09671">
        <ele>172</ele>
        <time>2022-05-17T05:23:06Z</time>
      </trkpt>
      <trkpt lat="46.40232" lon="1.09616">
        <ele>174</ele>
        <time>2022-05-17T05:23:42Z</time>
      </trkpt>
      <trkpt lat="46.40273" lon="1.09536">
        <ele>178</ele>
        <time>2022-05-17T05:24:37Z</time>
      </trkpt>
      <trkpt lat="46.40314" lon="1.09502">
        <ele>180</ele>
        <time>2022-05-17T05:25:15Z</time>
      </trkpt>
      <trkpt lat="46.40332" lon="1.09549">
        <ele>182</ele>
        <time>2022-05-17T05:25:45Z</time>
      </trkpt>
      <trkpt lat="46.40356" lon="1.09607">
        <ele>183</ele>
        <time>2022-05-17T05:26:22Z</time>
      </trkpt>
      <trkpt lat="46.4038" lon="1.09665">
        <ele>184</ele>
        <time>2022-05-17T05:27:00Z</time>
      </trkpt>
      <trkpt lat="46.40393" lon="1.0974">
        <ele>185</ele>
        <time>2022-05-17T05:27:42Z</time>
      </trkpt>
      <trkpt lat="46.4043" lon="1.09886">
        <ele>188</ele>
        <time>2022-05-17T05:29:08Z</time>
      </trkpt>
      <trkpt lat="46.40442" lon="1.10013">
        <ele>186</ele>
        <time>2022-05-17T05:30:19Z</time>
      </trkpt>
      <trkpt lat="46.40461" lon="1.10131">
        <ele>186</ele>
        <time>2022-05-17T05:31:26Z</time>
      </trkpt>
      <trkpt lat="46.40655" lon="1.10036">
        <ele>187</ele>
        <time>2022-05-17T05:34:10Z</time>
      </trkpt>
      <trkpt lat="46.40677" lon="1.10238">
        <ele>187</ele>
        <time>2022-05-17T05:36:03Z</time>
      </trkpt>
      <trkpt lat="46.40695" lon="1.1042">
        <ele>185</ele>
        <time>2022-05-17T05:37:44Z</time>
      </trkpt>
      <trkpt lat="46.40695" lon="1.10686">
        <ele>184</ele>
        <time>2022-05-17T05:40:11Z</time>
      </trkpt>
      <trkpt lat="46.40677" lon="1.10768">
        <ele>182</ele>
        <time>2022-05-17T05:40:59Z</time>
      </trkpt>
      <trkpt lat="46.40696" lon="1.10862">
        <ele>180</ele>
        <time>2022-05-17T05:41:53Z</time>
      </trkpt>
      <trkpt lat="46.40744" lon="1.1097">
        <ele>179</ele>
        <time>2022-05-17T05:43:04Z</time>
      </trkpt>
      <trkpt lat="46.40784" lon="1.11075">
        <ele>177</ele>
        <time>2022-05-17T05:44:10Z</time>
      </trkpt>
      <trkpt lat="46.40815" lon="1.11242">
        <ele>178</ele>
        <time>2022-05-17T05:45:45Z</time>
      </trkpt>
      <trkpt lat="46.40883" lon="1.11399">
        <ele>178</ele>
        <time>2022-05-17T05:47:28Z</time>
      </trkpt>
      <trkpt lat="46.40855" lon="1.11699">
        <ele>184</ele>
        <time>2022-05-17T05:50:15Z</time>
      </trkpt>
      <trkpt lat="46.40832" lon="1.1189">
        <ele>185</ele>
        <time>2022-05-17T05:52:02Z</time>
      </trkpt>
      <trkpt lat="46.40856" lon="1.1197">
        <ele>184</ele>
        <time>2022-05-17T05:52:50Z</time>
      </trkpt>
      <trkpt lat="46.40902" lon="1.12028">
        <ele>185</ele>
        <time>2022-05-17T05:53:39Z</time>
      </trkpt>
      <trkpt lat="46.4093" lon="1.12113">
        <ele>186</ele>
        <time>2022-05-17T05:54:31Z</time>
      </trkpt>
      <trkpt lat="46.40946" lon="1.12195">
        <ele>186</ele>
        <time>2022-05-17T05:55:18Z</time>
      </trkpt>
      <trkpt lat="46.40873" lon="1.12206">
        <ele>187</ele>
        <time>2022-05-17T05:56:17Z</time>
      </trkpt>
      <trkpt lat="46.40791" lon="1.12138">
        <ele>188</ele>
        <time>2022-05-17T05:57:32Z</time>
      </trkpt>
      <trkpt lat="46.40679" lon="1.12146">
        <ele>190</ele>
        <time>2022-05-17T05:59:02Z</time>
      </trkpt>
      <trkpt lat="46.40619" lon="1.12156">
        <ele>191</ele>
        <time>2022-05-17T05:59:50Z</time>
      </trkpt>
      <trkpt lat="46.40458" lon="1.12124">
        <ele>194</ele>
        <time>2022-05-17T06:02:01Z</time>
      </trkpt>
      <trkpt lat="46.40327" lon="1.12127">
        <ele>192</ele>
        <time>2022-05-17T06:03:45Z</time>
      </trkpt>
      <trkpt lat="46.40341" lon="1.12488">
        <ele>183</ele>
        <time>2022-05-17T06:07:05Z</time>
      </trkpt>
      <trkpt lat="46.40318" lon="1.12666">
        <ele>176</ele>
        <time>2022-05-17T06:08:45Z</time>
      </trkpt>
      <trkpt lat="46.40337" lon="1.12707">
        <ele>174</ele>
        <time>2022-05-17T06:09:12Z</time>
      </trkpt>
      <trkpt lat="46.40396" lon="1.12733">
        <ele>172</ele>
        <time>2022-05-17T06:10:02Z</time>
      </trkpt>
      <trkpt lat="46.40475" lon="1.1274">
        <ele>169</ele>
        <time>2022-05-17T06:11:05Z</time>
      </trkpt>
      <trkpt lat="46.40467" lon="1.12825">
        <ele>170</ele>
        <time>2022-05-17T06:11:52Z</time>
      </trkpt>
      <trkpt lat="46.40435" lon="1.1284">
        <ele>172</ele>
        <time>2022-05-17T06:12:19Z</time>
      </trkpt>
      <trkpt lat="46.40432" lon="1.12928">
        <ele>177</ele>
        <time>2022-05-17T06:13:08Z</time>
      </trkpt>
      <trkpt lat="46.40429" lon="1.13006">
        <ele>182</ele>
        <time>2022-05-17T06:13:51Z</time>
      </trkpt>
      <trkpt lat="46.40443" lon="1.13071">
        <ele>184</ele>
        <time>2022-05-17T06:14:29Z</time>
      </trkpt>
      <trkpt lat="46.40479" lon="1.13137">
        <ele>185</ele>
        <time>2022-05-17T06:15:15Z</time>
      </trkpt>
      <trkpt lat="46.40442" lon="1.13197">
        <ele>188</ele>
        <time>2022-05-17T06:16:00Z</time>
      </trkpt>
      <trkpt lat="46.40363" lon="1.13135">
        <ele>189</ele>
        <time>2022-05-17T06:17:12Z</time>
      </trkpt>
      <trkpt lat="46.40255" lon="1.13182">
        <ele>191</ele>
        <time>2022-05-17T06:18:42Z</time>
      </trkpt>
      <trkpt lat="46.40147" lon="1.13227">
        <ele>191</ele>
        <time>2022-05-17T06:20:12Z</time>
      </trkpt>
      <trkpt lat="46.40085" lon="1.13248">
        <ele>192</ele>
        <time>2022-05-17T06:21:03Z</time>
      </trkpt>
      <trkpt lat="46.40001" lon="1.13317">
        <ele>197</ele>
        <time>2022-05-17T06:22:20Z</time>
      </trkpt>
      <trkpt lat="46.39927" lon="1.13343">
        <ele>198</ele>
        <time>2022-05-17T06:23:21Z</time>
      </trkpt>
      <trkpt lat="46.39731" lon="1.13257">
        <ele>200</ele>
        <time>2022-05-17T06:26:05Z</time>
      </trkpt>
      <trkpt lat="46.39786" lon="1.13107">
        <ele>201</ele>
        <time>2022-05-17T06:27:39Z</time>
      </trkpt>
      <trkpt lat="46.39819" lon="1.1303">
        <ele>201</ele>
        <time>2022-05-17T06:28:29Z</time>
      </trkpt>
      <trkpt lat="46.39865" lon="1.12845">
        <ele>196</ele>
        <time>2022-05-17T06:30:17Z</time>
      </trkpt>
      <trkpt lat="46.39844" lon="1.12751">
        <ele>195</ele>
        <time>2022-05-17T06:31:12Z</time>
      </trkpt>
      <trkpt lat="46.39748" lon="1.12665">
        <ele>199</ele>
        <time>2022-05-17T06:32:42Z</time>
      </trkpt>
      <trkpt lat="46.39705" lon="1.12648">
        <ele>199</ele>
        <time>2022-05-17T06:33:18Z</time>
      </trkpt>
      <trkpt lat="46.39518" lon="1.12618">
        <ele>199</ele>
        <time>2022-05-17T06:35:49Z</time>
      </trkpt>
      <trkpt lat="46.39459" lon="1.1262">
        <ele>199</ele>
        <time>2022-05-17T06:36:36Z</time>
      </trkpt>
      <trkpt lat="46.3947" lon="1.12425">
        <ele>197</ele>
        <time>2022-05-17T06:38:24Z</time>
      </trkpt>
      <trkpt lat="46.39321" lon="1.12271">
        <ele>194</ele>
        <time>2022-05-17T06:40:51Z</time>
      </trkpt>
      <trkpt lat="46.3929" lon="1.12417">
        <ele>194</ele>
        <time>2022-05-17T06:42:15Z</time>
      </trkpt>
      <trkpt lat="46.39254" lon="1.12464">
        <ele>195</ele>
        <time>2022-05-17T06:42:54Z</time>
      </trkpt>
      <trkpt lat="46.39223" lon="1.12558">
        <ele>195</ele>
        <time>2022-05-17T06:43:51Z</time>
      </trkpt>
      <trkpt lat="46.39145" lon="1.12572">
        <ele>191</ele>
        <time>2022-05-17T06:44:54Z</time>
      </trkpt>
      <trkpt lat="46.39135" lon="1.12405">
        <ele>190</ele>
        <time>2022-05-17T06:46:27Z</time>
      </trkpt>
      <trkpt lat="46.38953" lon="1.12241">
        <ele>179</ele>
        <time>2022-05-17T06:49:18Z</time>
      </trkpt>
      <trkpt lat="46.39037" lon="1.11856">
        <ele>183</ele>
        <time>2022-05-17T06:53:01Z</time>
      </trkpt>
      <trkpt lat="46.39039" lon="1.11798">
        <ele>184</ele>
        <time>2022-05-17T06:53:33Z</time>
      </trkpt>
      <trkpt lat="46.3903" lon="1.11729">
        <ele>184</ele>
        <time>2022-05-17T06:54:12Z</time>
      </trkpt>
      <trkpt lat="46.39076" lon="1.11403">
        <ele>181</ele>
        <time>2022-05-17T06:57:16Z</time>
      </trkpt>
      <trkpt lat="46.39074" lon="1.11332">
        <ele>181</ele>
        <time>2022-05-17T06:57:55Z</time>
      </trkpt>
      <trkpt lat="46.39061" lon="1.1118">
        <ele>182</ele>
        <time>2022-05-17T06:59:20Z</time>
      </trkpt>
      <trkpt lat="46.39027" lon="1.11038">
        <ele>183</ele>
        <time>2022-05-17T07:00:43Z</time>
      </trkpt>
      <trkpt lat="46.39006" lon="1.10942">
        <ele>183</ele>
        <time>2022-05-17T07:01:38Z</time>
      </trkpt>
      <trkpt lat="46.38994" lon="1.10667">
        <ele>183</ele>
        <time>2022-05-17T07:04:11Z</time>
      </trkpt>
      <trkpt lat="46.39116" lon="1.10662">
        <ele>174</ele>
        <time>2022-05-17T07:05:48Z</time>
      </trkpt>
      <trkpt lat="46.39234" lon="1.10588">
        <ele>167</ele>
        <time>2022-05-17T07:07:31Z</time>
      </trkpt>
      <trkpt lat="46.39216" lon="1.1053">
        <ele>167</ele>
        <time>2022-05-17T07:08:06Z</time>
      </trkpt>
      <trkpt lat="46.39191" lon="1.10307">
        <ele>167</ele>
        <time>2022-05-17T07:10:11Z</time>
      </trkpt>
      <trkpt lat="46.39292" lon="1.10238">
        <ele>161</ele>
        <time>2022-05-17T07:11:40Z</time>
      </trkpt>
      <trkpt lat="46.39341" lon="1.1021">
        <ele>159</ele>
        <time>2022-05-17T07:12:23Z</time>
      </trkpt>
      <trkpt lat="46.39382" lon="1.10171">
        <ele>163</ele>
        <time>2022-05-17T07:13:02Z</time>
      </trkpt>
      <trkpt lat="46.39455" lon="1.10161">
        <ele>170</ele>
        <time>2022-05-17T07:14:01Z</time>
      </trkpt>
      <trkpt lat="46.39502" lon="1.10092">
        <ele>175</ele>
        <time>2022-05-17T07:14:54Z</time>
      </trkpt>
      <trkpt lat="46.39603" lon="1.10058">
        <ele>178</ele>
        <time>2022-05-17T07:16:17Z</time>
      </trkpt>
      <trkpt lat="46.39654" lon="1.10013">
        <ele>179</ele>
        <time>2022-05-17T07:17:05Z</time>
      </trkpt>
      <trkpt lat="46.39653" lon="1.09963">
        <ele>179</ele>
        <time>2022-05-17T07:17:33Z</time>
      </trkpt>
      <trkpt lat="46.39625" lon="1.09886">
        <ele>178</ele>
        <time>2022-05-17T07:18:21Z</time>
      </trkpt>
      <trkpt lat="46.3961" lon="1.0985">
        <ele>177</ele>
        <time>2022-05-17T07:18:44Z</time>
      </trkpt>
      <trkpt lat="46.39629" lon="1.09792">
        <ele>176</ele>
        <time>2022-05-17T07:19:19Z</time>
      </trkpt>
      <trkpt lat="46.39573" lon="1.09753">
        <ele>171</ele>
        <time>2022-05-17T07:20:09Z</time>
      </trkpt>
      <trkpt lat="46.39515" lon="1.09732">
        <ele>169</ele>
        <time>2022-05-17T07:20:57Z</time>
      </trkpt>
      <trkpt lat="46.39489" lon="1.09659">
        <ele>162</ele>
        <time>2022-05-17T07:21:42Z</time>
      </trkpt>
      <trkpt lat="46.39465" lon="1.09609">
        <ele>157</ele>
        <time>2022-05-17T07:22:16Z</time>
      </trkpt>
      <trkpt lat="46.39459" lon="1.09558">
        <ele>153</ele>
        <time>2022-05-17T07:22:45Z</time>
      </trkpt>
      <trkpt lat="46.39453" lon="1.09506">
        <ele>150</ele>
        <time>2022-05-17T07:23:14Z</time>
      </trkpt>
      <trkpt lat="46.39447" lon="1.09455">
        <ele>147</ele>
        <time>2022-05-17T07:23:42Z</time>
      </trkpt>
      <trkpt lat="46.39441" lon="1.09414">
        <ele>144</ele>
        <time>2022-05-17T07:24:05Z</time>
      </trkpt>
      <trkpt lat="46.3947" lon="1.0936">
        <ele>142</ele>
        <time>2022-05-17T07:24:43Z</time>
      </trkpt>
      <trkpt lat="46.39512" lon="1.09307">
        <ele>141</ele>
        <time>2022-05-17T07:25:28Z</time>
      </trkpt>
      <trkpt lat="46.39501" lon="1.09266">
        <ele>141</ele>
        <time>2022-05-17T07:25:52Z</time>
      </trkpt>
      <trkpt lat="46.39478" lon="1.09244">
        <ele>141</ele>
        <time>2022-05-17T07:26:14Z</time>
      </trkpt>
      <trkpt lat="46.3945" lon="1.09279">
        <ele>141</ele>
        <time>2022-05-17T07:26:44Z</time>
      </trkpt>
      <trkpt lat="46.39406" lon="1.0935">
        <ele>142</ele>
        <time>2022-05-17T07:27:36Z</time>
      </trkpt>
      <trkpt lat="46.39336" lon="1.09384">
        <ele>144</ele>
        <time>2022-05-17T07:28:36Z</time>
      </trkpt>
      <trkpt lat="46.3929" lon="1.09468">
        <ele>148</ele>
        <time>2022-05-17T07:29:35Z</time>
      </trkpt>
      <trkpt lat="46.39242" lon="1.09549">
        <ele>155</ele>
        <time>2022-05-17T07:30:34Z</time>
      </trkpt>
      <trkpt lat="46.39166" lon="1.09594">
        <ele>161</ele>
        <time>2022-05-17T07:31:39Z</time>
      </trkpt>
      <trkpt lat="46.39205" lon="1.09485">
        <ele>152</ele>
        <time>2022-05-17T07:32:47Z</time>
      </trkpt>
      <trkpt lat="46.39239" lon="1.09367">
        <ele>143</ele>
        <time>2022-05-17T07:33:58Z</time>
      </trkpt>
      <trkpt lat="46.39277" lon="1.09255">
        <ele>138</ele>
        <time>2022-05-17T07:35:07Z</time>
      </trkpt>
      <trkpt lat="46.39329" lon="1.09232">
        <ele>138</ele>
        <time>2022-05-17T07:35:50Z</time>
      </trkpt>
      <trkpt lat="46.39323" lon="1.09202">
        <ele>139</ele>
        <time>2022-05-17T07:36:08Z</time>
      </trkpt>
      <trkpt lat="46.39287" lon="1.09193">
        <ele>139</ele>
        <time>2022-05-17T07:36:37Z</time>
      </trkpt>
      <trkpt lat="46.39224" lon="1.09111">
        <ele>142</ele>
        <time>2022-05-17T07:37:45Z</time>
      </trkpt>
      <trkpt lat="46.39302" lon="1.09131">
        <ele>140</ele>
        <time>2022-05-17T07:38:48Z</time>
      </trkpt>
      <trkpt lat="46.39424" lon="1.0915">
        <ele>140</ele>
        <time>2022-05-17T07:40:26Z</time>
      </trkpt>
      <trkpt lat="46.39493" lon="1.09129">
        <ele>139</ele>
        <time>2022-05-17T07:41:23Z</time>
      </trkpt>
      <trkpt lat="46.39475" lon="1.09036">
        <ele>137</ele>
        <time>2022-05-17T07:42:16Z</time>
      </trkpt>
      <trkpt lat="46.39458" lon="1.08944">
        <ele>136</ele>
        <time>2022-05-17T07:43:09Z</time>
      </trkpt>
      <trkpt lat="46.39428" lon="1.08942">
        <ele>136</ele>
        <time>2022-05-17T07:43:33Z</time>
      </trkpt>
      <trkpt lat="46.39418" lon="1.08899">
        <ele>138</ele>
        <time>2022-05-17T07:43:58Z</time>
      </trkpt>
      <trkpt lat="46.39381" lon="1.08869">
        <ele>143</ele>
        <time>2022-05-17T07:44:32Z</time>
      </trkpt>
      <trkpt lat="46.39348" lon="1.08833">
        <ele>149</ele>
        <time>2022-05-17T07:45:05Z</time>
      </trkpt>
    </trkseg>
  </trk>
</gpx>